sensor_id;sensor_type;location;lat;lon;timestamp;temperature;humidity
35613;DHT22;22054;51.646;7.078;2022-11-04T00:01:49;10.90;99.90
35613;DHT22;22054;51.646;7.078;2022-11-04T00:04:17;11.00;99.90
35613;DHT22;22054;51.646;7.078;2022-11-04T00:06:44;10.80;99.90
35613;DHT22;22054;51.646;7.078;2022-11-04T00:09:12;10.80;99.90
35613;DHT22;22054;51.646;7.078;2022-11-04T00:11:44;10.70;99.90
35613;DHT22;22054;51.646;7.078;2022-11-04T00:14:30;10.80;99.90
35613;DHT22;22054;51.646;7.078;2022-11-04T00:16:57;10.70;99.90
35613;DHT22;22054;51.646;7.078;2022-11-04T00:19:45;10.70;99.90
35613;DHT22;22054;51.646;7.078;2022-11-04T00:22:38;10.70;99.90
35613;DHT22;22054;51.646;7.078;2022-11-04T00:25:24;10.70;99.90
35613;DHT22;22054;51.646;7.078;2022-11-04T00:28:12;10.70;99.90
35613;DHT22;22054;51.646;7.078;2022-11-04T00:31:02;10.60;99.90
35613;DHT22;22054;51.646;7.078;2022-11-04T00:33:49;10.80;99.90
35613;DHT22;22054;51.646;7.078;2022-11-04T00:36:16;10.70;99.90
35613;DHT22;22054;51.646;7.078;2022-11-04T00:38:42;10.70;99.90
35613;DHT22;22054;51.646;7.078;2022-11-04T00:41:08;10.70;99.90
35613;DHT22;22054;51.646;7.078;2022-11-04T00:43:57;10.70;99.90
35613;DHT22;22054;51.646;7.078;2022-11-04T00:46:25;10.60;99.90
35613;DHT22;22054;51.646;7.078;2022-11-04T00:48:54;10.70;99.90
35613;DHT22;22054;51.646;7.078;2022-11-04T00:51:20;10.60;99.90
35613;DHT22;22054;51.646;7.078;2022-11-04T00:53:47;10.60;99.90
35613;DHT22;22054;51.646;7.078;2022-11-04T00:56:13;10.70;99.90
35613;DHT22;22054;51.646;7.078;2022-11-04T00:58:39;10.70;99.90
35613;DHT22;22054;51.646;7.078;2022-11-04T01:01:13;10.80;99.90
35613;DHT22;22054;51.646;7.078;2022-11-04T01:03:43;10.70;99.90
35613;DHT22;22054;51.646;7.078;2022-11-04T01:06:09;10.80;99.90
35613;DHT22;22054;51.646;7.078;2022-11-04T01:08:35;10.80;99.90
35613;DHT22;22054;51.646;7.078;2022-11-04T01:11:06;10.80;99.90
35613;DHT22;22054;51.646;7.078;2022-11-04T01:13:33;10.80;99.90
35613;DHT22;22054;51.646;7.078;2022-11-04T01:16:00;10.80;99.90
35613;DHT22;22054;51.646;7.078;2022-11-04T01:18:27;10.80;99.90
35613;DHT22;22054;51.646;7.078;2022-11-04T01:20:52;10.90;99.90
35613;DHT22;22054;51.646;7.078;2022-11-04T01:23:18;10.90;99.90
35613;DHT22;22054;51.646;7.078;2022-11-04T01:25:45;10.90;99.90
35613;DHT22;22054;51.646;7.078;2022-11-04T01:28:10;11.00;99.90
35613;DHT22;22054;51.646;7.078;2022-11-04T01:30:37;10.90;99.90
35613;DHT22;22054;51.646;7.078;2022-11-04T01:33:03;10.80;99.90
35613;DHT22;22054;51.646;7.078;2022-11-04T01:35:30;10.90;99.90
35613;DHT22;22054;51.646;7.078;2022-11-04T01:37:57;10.80;99.90
35613;DHT22;22054;51.646;7.078;2022-11-04T01:40:23;10.80;99.90
35613;DHT22;22054;51.646;7.078;2022-11-04T01:42:49;10.90;99.90
35613;DHT22;22054;51.646;7.078;2022-11-04T01:45:17;11.00;99.90
35613;DHT22;22054;51.646;7.078;2022-11-04T01:48:04;11.00;99.90
35613;DHT22;22054;51.646;7.078;2022-11-04T01:50:36;10.90;99.90
35613;DHT22;22054;51.646;7.078;2022-11-04T01:53:13;10.90;99.90
35613;DHT22;22054;51.646;7.078;2022-11-04T01:55:51;11.00;99.90
35613;DHT22;22054;51.646;7.078;2022-11-04T01:58:27;11.00;99.90
35613;DHT22;22054;51.646;7.078;2022-11-04T02:00:55;11.00;99.90
35613;DHT22;22054;51.646;7.078;2022-11-04T02:03:44;11.00;99.90
35613;DHT22;22054;51.646;7.078;2022-11-04T02:06:14;11.00;99.90
35613;DHT22;22054;51.646;7.078;2022-11-04T02:08:41;10.90;99.90
35613;DHT22;22054;51.646;7.078;2022-11-04T02:11:07;10.90;99.90
35613;DHT22;22054;51.646;7.078;2022-11-04T02:13:34;11.20;99.90
35613;DHT22;22054;51.646;7.078;2022-11-04T02:16:22;10.90;99.90
35613;DHT22;22054;51.646;7.078;2022-11-04T02:22:06;10.80;99.90
35613;DHT22;22054;51.646;7.078;2022-11-04T02:30:24;10.70;99.90
35613;DHT22;22054;51.646;7.078;2022-11-04T02:32:58;10.70;99.90
35613;DHT22;22054;51.646;7.078;2022-11-04T02:35:41;10.70;99.90
35613;DHT22;22054;51.646;7.078;2022-11-04T02:38:31;10.70;99.90
35613;DHT22;22054;51.646;7.078;2022-11-04T02:41:21;10.60;99.90
35613;DHT22;22054;51.646;7.078;2022-11-04T02:44:06;10.60;99.90
35613;DHT22;22054;51.646;7.078;2022-11-04T02:46:49;10.60;99.90
35613;DHT22;22054;51.646;7.078;2022-11-04T02:49:40;10.60;99.90
35613;DHT22;22054;51.646;7.078;2022-11-04T02:52:28;10.70;99.90
35613;DHT22;22054;51.646;7.078;2022-11-04T02:55:15;10.60;99.90
35613;DHT22;22054;51.646;7.078;2022-11-04T02:57:46;10.70;99.90
35613;DHT22;22054;51.646;7.078;2022-11-04T03:00:14;10.60;99.90
35613;DHT22;22054;51.646;7.078;2022-11-04T03:02:52;10.60;99.90
35613;DHT22;22054;51.646;7.078;2022-11-04T03:05:25;10.60;99.90
35613;DHT22;22054;51.646;7.078;2022-11-04T03:07:56;10.60;99.90
35613;DHT22;22054;51.646;7.078;2022-11-04T03:10:40;10.70;99.90
35613;DHT22;22054;51.646;7.078;2022-11-04T03:13:21;10.80;99.90
35613;DHT22;22054;51.646;7.078;2022-11-04T03:15:56;10.70;99.90
35613;DHT22;22054;51.646;7.078;2022-11-04T03:18:37;10.80;99.90
35613;DHT22;22054;51.646;7.078;2022-11-04T03:21:10;10.80;99.90
35613;DHT22;22054;51.646;7.078;2022-11-04T03:23:37;10.80;99.90
35613;DHT22;22054;51.646;7.078;2022-11-04T03:26:13;10.80;99.90
35613;DHT22;22054;51.646;7.078;2022-11-04T03:29:16;10.80;99.90
35613;DHT22;22054;51.646;7.078;2022-11-04T03:34:46;10.70;99.90
35613;DHT22;22054;51.646;7.078;2022-11-04T03:37:12;10.60;99.90
35613;DHT22;22054;51.646;7.078;2022-11-04T03:39:38;10.60;99.90
35613;DHT22;22054;51.646;7.078;2022-11-04T03:42:07;10.60;99.90
35613;DHT22;22054;51.646;7.078;2022-11-04T03:44:51;10.50;99.90
35613;DHT22;22054;51.646;7.078;2022-11-04T03:47:20;10.40;99.90
35613;DHT22;22054;51.646;7.078;2022-11-04T03:49:50;10.40;99.90
35613;DHT22;22054;51.646;7.078;2022-11-04T03:52:19;10.40;99.90
35613;DHT22;22054;51.646;7.078;2022-11-04T03:54:45;10.40;99.90
35613;DHT22;22054;51.646;7.078;2022-11-04T04:00:35;10.40;99.90
35613;DHT22;22054;51.646;7.078;2022-11-04T04:04:10;10.30;99.90
35613;DHT22;22054;51.646;7.078;2022-11-04T04:06:19;10.30;99.90
35613;DHT22;22054;51.646;7.078;2022-11-04T04:08:53;10.30;99.90
35613;DHT22;22054;51.646;7.078;2022-11-04T04:11:43;10.30;99.90
35613;DHT22;22054;51.646;7.078;2022-11-04T04:14:31;10.30;99.90
35613;DHT22;22054;51.646;7.078;2022-11-04T04:19:46;10.10;99.90
35613;DHT22;22054;51.646;7.078;2022-11-04T04:22:24;10.10;99.90
35613;DHT22;22054;51.646;7.078;2022-11-04T04:24:56;10.10;99.90
35613;DHT22;22054;51.646;7.078;2022-11-04T04:27:43;10.00;99.90
35613;DHT22;22054;51.646;7.078;2022-11-04T04:30:12;10.10;99.90
35613;DHT22;22054;51.646;7.078;2022-11-04T04:35:21;10.00;99.90
35613;DHT22;22054;51.646;7.078;2022-11-04T04:38:29;9.90;99.90
35613;DHT22;22054;51.646;7.078;2022-11-04T04:41:31;9.80;99.90
35613;DHT22;22054;51.646;7.078;2022-11-04T04:44:33;9.80;99.90
35613;DHT22;22054;51.646;7.078;2022-11-04T04:47:22;9.80;99.90
35613;DHT22;22054;51.646;7.078;2022-11-04T04:49:53;10.00;99.90
35613;DHT22;22054;51.646;7.078;2022-11-04T04:52:21;9.80;99.90
35613;DHT22;22054;51.646;7.078;2022-11-04T04:54:48;9.80;99.90
35613;DHT22;22054;51.646;7.078;2022-11-04T04:57:13;9.70;99.90
35613;DHT22;22054;51.646;7.078;2022-11-04T04:59:39;9.80;99.90
35613;DHT22;22054;51.646;7.078;2022-11-04T05:02:05;9.80;99.90
35613;DHT22;22054;51.646;7.078;2022-11-04T05:04:30;9.80;99.90
35613;DHT22;22054;51.646;7.078;2022-11-04T05:06:56;9.90;99.90
35613;DHT22;22054;51.646;7.078;2022-11-04T05:09:22;10.10;99.90
35613;DHT22;22054;51.646;7.078;2022-11-04T05:11:48;9.90;99.90
35613;DHT22;22054;51.646;7.078;2022-11-04T05:14:14;9.80;99.90
35613;DHT22;22054;51.646;7.078;2022-11-04T05:16:39;9.80;99.90
35613;DHT22;22054;51.646;7.078;2022-11-04T05:19:05;9.80;99.90
35613;DHT22;22054;51.646;7.078;2022-11-04T05:21:31;9.80;99.90
35613;DHT22;22054;51.646;7.078;2022-11-04T05:23:56;9.80;99.90
35613;DHT22;22054;51.646;7.078;2022-11-04T05:26:22;9.90;99.90
35613;DHT22;22054;51.646;7.078;2022-11-04T05:28:48;9.90;99.90
35613;DHT22;22054;51.646;7.078;2022-11-04T05:31:14;9.90;99.90
35613;DHT22;22054;51.646;7.078;2022-11-04T05:33:39;10.00;99.90
35613;DHT22;22054;51.646;7.078;2022-11-04T05:36:10;10.10;99.90
35613;DHT22;22054;51.646;7.078;2022-11-04T05:38:38;10.10;99.90
35613;DHT22;22054;51.646;7.078;2022-11-04T05:41:05;10.30;99.90
35613;DHT22;22054;51.646;7.078;2022-11-04T05:43:33;10.10;99.90
35613;DHT22;22054;51.646;7.078;2022-11-04T05:46:00;10.00;99.90
35613;DHT22;22054;51.646;7.078;2022-11-04T05:48:26;10.10;99.90
35613;DHT22;22054;51.646;7.078;2022-11-04T05:50:53;10.10;99.90
35613;DHT22;22054;51.646;7.078;2022-11-04T05:53:19;10.20;99.90
35613;DHT22;22054;51.646;7.078;2022-11-04T05:55:45;10.20;99.90
35613;DHT22;22054;51.646;7.078;2022-11-04T05:58:11;10.10;99.90
35613;DHT22;22054;51.646;7.078;2022-11-04T06:00:37;10.20;99.90
35613;DHT22;22054;51.646;7.078;2022-11-04T06:03:02;10.20;99.90
35613;DHT22;22054;51.646;7.078;2022-11-04T06:05:28;10.20;99.90
35613;DHT22;22054;51.646;7.078;2022-11-04T06:07:55;10.20;99.90
35613;DHT22;22054;51.646;7.078;2022-11-04T06:10:22;10.30;99.90
35613;DHT22;22054;51.646;7.078;2022-11-04T06:12:48;10.30;99.90
35613;DHT22;22054;51.646;7.078;2022-11-04T06:15:14;10.30;99.90
35613;DHT22;22054;51.646;7.078;2022-11-04T06:17:39;10.30;99.90
35613;DHT22;22054;51.646;7.078;2022-11-04T06:20:06;10.40;99.90
35613;DHT22;22054;51.646;7.078;2022-11-04T06:22:32;10.40;99.90
35613;DHT22;22054;51.646;7.078;2022-11-04T06:24:57;10.40;99.90
35613;DHT22;22054;51.646;7.078;2022-11-04T06:27:23;10.40;99.90
35613;DHT22;22054;51.646;7.078;2022-11-04T06:29:49;10.40;99.90
35613;DHT22;22054;51.646;7.078;2022-11-04T06:32:17;10.40;99.90
35613;DHT22;22054;51.646;7.078;2022-11-04T06:34:44;10.40;99.90
35613;DHT22;22054;51.646;7.078;2022-11-04T06:37:10;10.40;99.90
35613;DHT22;22054;51.646;7.078;2022-11-04T06:39:36;10.40;99.90
35613;DHT22;22054;51.646;7.078;2022-11-04T06:42:03;10.40;99.90
35613;DHT22;22054;51.646;7.078;2022-11-04T06:44:29;10.40;99.90
35613;DHT22;22054;51.646;7.078;2022-11-04T06:46:56;10.40;99.90
35613;DHT22;22054;51.646;7.078;2022-11-04T06:49:21;10.40;99.90
35613;DHT22;22054;51.646;7.078;2022-11-04T06:51:48;10.40;99.90
35613;DHT22;22054;51.646;7.078;2022-11-04T06:54:15;10.60;99.90
35613;DHT22;22054;51.646;7.078;2022-11-04T06:56:41;10.40;99.90
35613;DHT22;22054;51.646;7.078;2022-11-04T06:59:11;10.50;99.90
35613;DHT22;22054;51.646;7.078;2022-11-04T07:01:40;10.60;99.90
35613;DHT22;22054;51.646;7.078;2022-11-04T07:04:06;10.60;99.90
35613;DHT22;22054;51.646;7.078;2022-11-04T07:06:32;10.80;99.90
35613;DHT22;22054;51.646;7.078;2022-11-04T07:08:59;10.50;99.90
35613;DHT22;22054;51.646;7.078;2022-11-04T07:11:27;10.50;99.90
35613;DHT22;22054;51.646;7.078;2022-11-04T07:13:54;10.60;99.90
35613;DHT22;22054;51.646;7.078;2022-11-04T07:16:19;10.60;99.90
35613;DHT22;22054;51.646;7.078;2022-11-04T07:18:46;10.60;99.90
35613;DHT22;22054;51.646;7.078;2022-11-04T07:21:13;10.70;99.90
35613;DHT22;22054;51.646;7.078;2022-11-04T07:23:39;10.70;99.90
35613;DHT22;22054;51.646;7.078;2022-11-04T07:26:07;10.70;99.90
35613;DHT22;22054;51.646;7.078;2022-11-04T07:28:34;10.80;99.90
35613;DHT22;22054;51.646;7.078;2022-11-04T07:31:01;10.70;99.90
35613;DHT22;22054;51.646;7.078;2022-11-04T07:33:28;10.80;99.90
35613;DHT22;22054;51.646;7.078;2022-11-04T07:35:54;10.80;99.90
35613;DHT22;22054;51.646;7.078;2022-11-04T07:38:21;10.90;99.90
35613;DHT22;22054;51.646;7.078;2022-11-04T07:40:47;10.90;99.90
35613;DHT22;22054;51.646;7.078;2022-11-04T07:43:13;10.90;99.90
35613;DHT22;22054;51.646;7.078;2022-11-04T07:45:40;11.00;99.90
35613;DHT22;22054;51.646;7.078;2022-11-04T07:48:07;11.00;99.90
35613;DHT22;22054;51.646;7.078;2022-11-04T07:50:33;11.00;99.90
35613;DHT22;22054;51.646;7.078;2022-11-04T07:52:59;11.10;99.90
35613;DHT22;22054;51.646;7.078;2022-11-04T07:55:25;11.10;99.90
35613;DHT22;22054;51.646;7.078;2022-11-04T07:57:53;11.40;99.90
35613;DHT22;22054;51.646;7.078;2022-11-04T08:00:19;11.20;99.90
35613;DHT22;22054;51.646;7.078;2022-11-04T08:02:45;11.30;99.90
35613;DHT22;22054;51.646;7.078;2022-11-04T08:05:14;11.30;99.90
35613;DHT22;22054;51.646;7.078;2022-11-04T08:07:40;11.40;99.90
35613;DHT22;22054;51.646;7.078;2022-11-04T08:10:07;11.50;99.90
35613;DHT22;22054;51.646;7.078;2022-11-04T08:12:34;11.60;99.90
35613;DHT22;22054;51.646;7.078;2022-11-04T08:15:02;11.60;99.90
35613;DHT22;22054;51.646;7.078;2022-11-04T08:17:28;11.60;99.60
35613;DHT22;22054;51.646;7.078;2022-11-04T08:19:54;11.60;99.90
35613;DHT22;22054;51.646;7.078;2022-11-04T08:22:20;11.80;99.90
35613;DHT22;22054;51.646;7.078;2022-11-04T08:24:46;11.70;99.90
35613;DHT22;22054;51.646;7.078;2022-11-04T08:27:12;11.80;92.80
35613;DHT22;22054;51.646;7.078;2022-11-04T08:29:39;11.80;91.60
35613;DHT22;22054;51.646;7.078;2022-11-04T08:32:06;11.80;95.70
35613;DHT22;22054;51.646;7.078;2022-11-04T08:34:33;11.80;97.90
35613;DHT22;22054;51.646;7.078;2022-11-04T08:36:58;11.80;97.70
35613;DHT22;22054;51.646;7.078;2022-11-04T08:39:24;11.80;99.90
35613;DHT22;22054;51.646;7.078;2022-11-04T08:41:50;11.80;99.90
35613;DHT22;22054;51.646;7.078;2022-11-04T08:44:18;11.90;94.50
35613;DHT22;22054;51.646;7.078;2022-11-04T08:46:45;12.20;94.50
35613;DHT22;22054;51.646;7.078;2022-11-04T08:49:12;12.40;85.80
35613;DHT22;22054;51.646;7.078;2022-11-04T08:51:42;12.40;64.60
35613;DHT22;22054;51.646;7.078;2022-11-04T08:54:09;12.80;74.70
35613;DHT22;22054;51.646;7.078;2022-11-04T08:56:37;12.60;62.30
35613;DHT22;22054;51.646;7.078;2022-11-04T08:59:04;12.70;57.90
35613;DHT22;22054;51.646;7.078;2022-11-04T09:01:32;12.70;1.00
35613;DHT22;22054;51.646;7.078;2022-11-04T09:03:59;12.70;1.00
35613;DHT22;22054;51.646;7.078;2022-11-04T09:06:34;12.70;1.00
35613;DHT22;22054;51.646;7.078;2022-11-04T09:09:03;12.70;1.00
35613;DHT22;22054;51.646;7.078;2022-11-04T09:11:37;12.70;1.00
35613;DHT22;22054;51.646;7.078;2022-11-04T09:14:04;12.50;1.00
35613;DHT22;22054;51.646;7.078;2022-11-04T09:16:31;12.50;1.00
35613;DHT22;22054;51.646;7.078;2022-11-04T09:18:59;12.40;1.00
35613;DHT22;22054;51.646;7.078;2022-11-04T09:21:26;12.20;1.00
35613;DHT22;22054;51.646;7.078;2022-11-04T09:23:52;12.20;1.00
35613;DHT22;22054;51.646;7.078;2022-11-04T09:26:19;12.10;1.00
35613;DHT22;22054;51.646;7.078;2022-11-04T09:28:45;12.20;1.00
35613;DHT22;22054;51.646;7.078;2022-11-04T09:31:17;12.20;1.00
35613;DHT22;22054;51.646;7.078;2022-11-04T09:33:44;12.20;1.00
35613;DHT22;22054;51.646;7.078;2022-11-04T09:36:10;12.30;1.00
35613;DHT22;22054;51.646;7.078;2022-11-04T09:38:38;12.30;1.00
35613;DHT22;22054;51.646;7.078;2022-11-04T09:47:26;12.30;1.00
35613;DHT22;22054;51.646;7.078;2022-11-04T09:49:55;12.30;1.00
35613;DHT22;22054;51.646;7.078;2022-11-04T09:52:33;12.30;1.00
35613;DHT22;22054;51.646;7.078;2022-11-04T09:55:21;12.50;1.00
35613;DHT22;22054;51.646;7.078;2022-11-04T09:57:54;12.60;1.00
35613;DHT22;22054;51.646;7.078;2022-11-04T10:00:22;12.70;1.00
35613;DHT22;22054;51.646;7.078;2022-11-04T10:05:50;12.60;1.00
35613;DHT22;22054;51.646;7.078;2022-11-04T10:09:12;12.50;1.00
35613;DHT22;22054;51.646;7.078;2022-11-04T10:23:27;12.50;1.00
35613;DHT22;22054;51.646;7.078;2022-11-04T10:26:21;12.60;1.00
35613;DHT22;22054;51.646;7.078;2022-11-04T10:29:00;12.70;1.00
35613;DHT22;22054;51.646;7.078;2022-11-04T10:31:27;12.80;1.00
35613;DHT22;22054;51.646;7.078;2022-11-04T10:33:56;12.90;1.00
35613;DHT22;22054;51.646;7.078;2022-11-04T10:36:25;12.90;1.00
35613;DHT22;22054;51.646;7.078;2022-11-04T10:38:52;12.80;1.00
35613;DHT22;22054;51.646;7.078;2022-11-04T10:41:37;12.80;1.00
35613;DHT22;22054;51.646;7.078;2022-11-04T10:44:15;12.80;1.00
35613;DHT22;22054;51.646;7.078;2022-11-04T10:46:53;12.70;1.00
35613;DHT22;22054;51.646;7.078;2022-11-04T10:52:23;12.90;1.00
35613;DHT22;22054;51.646;7.078;2022-11-04T10:54:49;12.90;1.00
35613;DHT22;22054;51.646;7.078;2022-11-04T10:57:23;13.10;1.00
35613;DHT22;22054;51.646;7.078;2022-11-04T10:59:55;12.90;1.00
35613;DHT22;22054;51.646;7.078;2022-11-04T11:02:42;12.80;1.00
35613;DHT22;22054;51.646;7.078;2022-11-04T11:07:48;12.80;1.00
35613;DHT22;22054;51.646;7.078;2022-11-04T11:10:25;12.80;1.00
35613;DHT22;22054;51.646;7.078;2022-11-04T11:13:01;12.90;1.00
35613;DHT22;22054;51.646;7.078;2022-11-04T11:15:34;12.90;1.00
35613;DHT22;22054;51.646;7.078;2022-11-04T11:18:10;13.10;1.00
35613;DHT22;22054;51.646;7.078;2022-11-04T11:20:40;13.30;1.00
35613;DHT22;22054;51.646;7.078;2022-11-04T11:23:44;13.30;1.00
35613;DHT22;22054;51.646;7.078;2022-11-04T11:26:16;13.40;1.00
35613;DHT22;22054;51.646;7.078;2022-11-04T11:28:53;13.30;99.90
35613;DHT22;22054;51.646;7.078;2022-11-04T11:31:34;13.40;1.00
35613;DHT22;22054;51.646;7.078;2022-11-04T11:34:30;13.60;1.00
35613;DHT22;22054;51.646;7.078;2022-11-04T11:36:58;13.60;1.00
35613;DHT22;22054;51.646;7.078;2022-11-04T11:39:30;13.70;99.90
35613;DHT22;22054;51.646;7.078;2022-11-04T11:42:14;13.70;99.90
35613;DHT22;22054;51.646;7.078;2022-11-04T11:44:56;13.90;99.90
35613;DHT22;22054;51.646;7.078;2022-11-04T11:50:17;14.00;99.90
35613;DHT22;22054;51.646;7.078;2022-11-04T11:52:46;14.00;99.90
35613;DHT22;22054;51.646;7.078;2022-11-04T11:55:29;14.30;99.90
35613;DHT22;22054;51.646;7.078;2022-11-04T11:58:22;14.00;1.00
35613;DHT22;22054;51.646;7.078;2022-11-04T12:01:09;14.10;99.90
35613;DHT22;22054;51.646;7.078;2022-11-04T12:03:47;14.00;1.00
35613;DHT22;22054;51.646;7.078;2022-11-04T12:09:40;13.90;99.90
35613;DHT22;22054;51.646;7.078;2022-11-04T12:12:31;14.00;99.90
35613;DHT22;22054;51.646;7.078;2022-11-04T12:18:14;13.90;1.00
35613;DHT22;22054;51.646;7.078;2022-11-04T12:21:03;14.10;1.00
35613;DHT22;22054;51.646;7.078;2022-11-04T12:26:59;14.50;1.00
35613;DHT22;22054;51.646;7.078;2022-11-04T12:43:41;13.80;1.00
35613;DHT22;22054;51.646;7.078;2022-11-04T12:49:37;13.30;1.00
35613;DHT22;22054;51.646;7.078;2022-11-04T12:55:30;13.10;99.90
35613;DHT22;22054;51.646;7.078;2022-11-04T12:58:22;13.00;1.00
35613;DHT22;22054;51.646;7.078;2022-11-04T13:00:59;12.90;1.00
35613;DHT22;22054;51.646;7.078;2022-11-04T13:06:32;12.80;1.00
35613;DHT22;22054;51.646;7.078;2022-11-04T13:12:11;12.70;1.00
35613;DHT22;22054;51.646;7.078;2022-11-04T13:14:54;12.60;1.00
35613;DHT22;22054;51.646;7.078;2022-11-04T13:17:34;12.60;1.00
35613;DHT22;22054;51.646;7.078;2022-11-04T13:20:20;12.60;1.00
35613;DHT22;22054;51.646;7.078;2022-11-04T13:22:52;12.80;1.00
35613;DHT22;22054;51.646;7.078;2022-11-04T13:25:36;13.30;1.00
35613;DHT22;22054;51.646;7.078;2022-11-04T13:28:09;14.40;99.90
35613;DHT22;22054;51.646;7.078;2022-11-04T13:31:25;15.40;99.90
35613;DHT22;22054;51.646;7.078;2022-11-04T13:34:10;15.90;1.00
35613;DHT22;22054;51.646;7.078;2022-11-04T13:36:56;16.10;99.90
35613;DHT22;22054;51.646;7.078;2022-11-04T13:40:09;17.10;1.00
35613;DHT22;22054;51.646;7.078;2022-11-04T13:42:50;18.30;1.00
35613;DHT22;22054;51.646;7.078;2022-11-04T13:45:45;17.90;99.90
35613;DHT22;22054;51.646;7.078;2022-11-04T13:48:18;17.20;1.00
35613;DHT22;22054;51.646;7.078;2022-11-04T13:51:14;16.30;99.90
35613;DHT22;22054;51.646;7.078;2022-11-04T13:53:48;15.70;1.00
35613;DHT22;22054;51.646;7.078;2022-11-04T13:56:38;15.20;1.00
35613;DHT22;22054;51.646;7.078;2022-11-04T13:59:25;14.90;1.00
35613;DHT22;22054;51.646;7.078;2022-11-04T14:04:38;15.10;1.00
35613;DHT22;22054;51.646;7.078;2022-11-04T14:07:12;15.00;1.00
35613;DHT22;22054;51.646;7.078;2022-11-04T14:14:45;16.30;1.00
35613;DHT22;22054;51.646;7.078;2022-11-04T14:20:26;15.80;1.00
35613;DHT22;22054;51.646;7.078;2022-11-04T14:23:04;15.50;1.00
35613;DHT22;22054;51.646;7.078;2022-11-04T14:25:40;15.50;1.00
35613;DHT22;22054;51.646;7.078;2022-11-04T14:30:49;15.50;1.00
35613;DHT22;22054;51.646;7.078;2022-11-04T14:41:50;15.50;17.40
35613;DHT22;22054;51.646;7.078;2022-11-04T14:47:27;15.40;99.90
35613;DHT22;22054;51.646;7.078;2022-11-04T14:52:43;15.30;99.90
35613;DHT22;22054;51.646;7.078;2022-11-04T14:57:43;14.90;99.90
35613;DHT22;22054;51.646;7.078;2022-11-04T15:05:58;14.60;1.00
35613;DHT22;22054;51.646;7.078;2022-11-04T15:11:13;14.30;99.90
35613;DHT22;22054;51.646;7.078;2022-11-04T15:14:24;14.00;1.00
35613;DHT22;22054;51.646;7.078;2022-11-04T15:16:54;13.90;1.00
35613;DHT22;22054;51.646;7.078;2022-11-04T15:19:33;13.80;1.00
35613;DHT22;22054;51.646;7.078;2022-11-04T15:22:03;13.90;22.50
35613;DHT22;22054;51.646;7.078;2022-11-04T15:24:30;13.50;99.90
35613;DHT22;22054;51.646;7.078;2022-11-04T15:27:05;13.40;99.90
35613;DHT22;22054;51.646;7.078;2022-11-04T15:29:31;13.40;99.90
35613;DHT22;22054;51.646;7.078;2022-11-04T15:32:00;13.20;99.90
35613;DHT22;22054;51.646;7.078;2022-11-04T15:34:27;13.10;1.00
35613;DHT22;22054;51.646;7.078;2022-11-04T15:36:57;12.90;1.00
35613;DHT22;22054;51.646;7.078;2022-11-04T15:39:28;13.00;1.00
35613;DHT22;22054;51.646;7.078;2022-11-04T15:42:01;13.00;1.00
35613;DHT22;22054;51.646;7.078;2022-11-04T15:44:53;12.80;1.00
35613;DHT22;22054;51.646;7.078;2022-11-04T15:47:26;12.80;1.00
35613;DHT22;22054;51.646;7.078;2022-11-04T15:50:00;12.60;1.00
35613;DHT22;22054;51.646;7.078;2022-11-04T15:52:28;12.50;1.00
35613;DHT22;22054;51.646;7.078;2022-11-04T15:54:56;12.50;1.00
35613;DHT22;22054;51.646;7.078;2022-11-04T15:57:33;12.40;1.00
35613;DHT22;22054;51.646;7.078;2022-11-04T16:02:45;12.20;1.00
35613;DHT22;22054;51.646;7.078;2022-11-04T16:05:20;12.20;1.00
35613;DHT22;22054;51.646;7.078;2022-11-04T16:07:48;12.20;1.00
35613;DHT22;22054;51.646;7.078;2022-11-04T16:10:34;12.10;4.40
35613;DHT22;22054;51.646;7.078;2022-11-04T16:18:43;12.10;18.30
35613;DHT22;22054;51.646;7.078;2022-11-04T16:23:50;12.00;33.90
35613;DHT22;22054;51.646;7.078;2022-11-04T16:26:24;12.00;51.40
35613;DHT22;22054;51.646;7.078;2022-11-04T16:28:53;11.90;58.80
35613;DHT22;22054;51.646;7.078;2022-11-04T16:31:24;11.90;65.20
35613;DHT22;22054;51.646;7.078;2022-11-04T16:34:00;11.80;78.40
35613;DHT22;22054;51.646;7.078;2022-11-04T16:36:26;11.70;82.60
35613;DHT22;22054;51.646;7.078;2022-11-04T16:39:00;11.60;91.20
35613;DHT22;22054;51.646;7.078;2022-11-04T16:41:33;11.50;97.80
35613;DHT22;22054;51.646;7.078;2022-11-04T16:44:02;11.40;99.90
35613;DHT22;22054;51.646;7.078;2022-11-04T16:46:29;11.30;99.90
35613;DHT22;22054;51.646;7.078;2022-11-04T16:48:57;11.20;99.90
35613;DHT22;22054;51.646;7.078;2022-11-04T16:51:23;11.30;99.90
35613;DHT22;22054;51.646;7.078;2022-11-04T16:53:53;11.30;99.90
35613;DHT22;22054;51.646;7.078;2022-11-04T16:56:23;11.30;99.90
35613;DHT22;22054;51.646;7.078;2022-11-04T16:58:52;11.20;99.90
35613;DHT22;22054;51.646;7.078;2022-11-04T17:01:18;11.20;99.90
35613;DHT22;22054;51.646;7.078;2022-11-04T17:03:45;11.30;99.90
35613;DHT22;22054;51.646;7.078;2022-11-04T17:06:13;11.10;99.90
35613;DHT22;22054;51.646;7.078;2022-11-04T17:08:39;11.20;99.90
35613;DHT22;22054;51.646;7.078;2022-11-04T17:11:06;11.20;99.90
35613;DHT22;22054;51.646;7.078;2022-11-04T17:13:32;11.00;99.90
35613;DHT22;22054;51.646;7.078;2022-11-04T17:15:58;10.80;99.90
35613;DHT22;22054;51.646;7.078;2022-11-04T17:18:24;11.00;99.90
35613;DHT22;22054;51.646;7.078;2022-11-04T17:20:52;10.80;99.90
35613;DHT22;22054;51.646;7.078;2022-11-04T17:23:19;10.80;99.90
35613;DHT22;22054;51.646;7.078;2022-11-04T17:25:46;10.60;99.90
35613;DHT22;22054;51.646;7.078;2022-11-04T17:28:13;10.50;99.90
35613;DHT22;22054;51.646;7.078;2022-11-04T17:30:40;10.50;99.90
35613;DHT22;22054;51.646;7.078;2022-11-04T17:33:14;10.10;99.90
35613;DHT22;22054;51.646;7.078;2022-11-04T17:35:43;10.30;99.90
35613;DHT22;22054;51.646;7.078;2022-11-04T17:38:13;10.20;99.90
35613;DHT22;22054;51.646;7.078;2022-11-04T17:40:39;10.30;99.90
35613;DHT22;22054;51.646;7.078;2022-11-04T17:43:24;10.10;99.90
35613;DHT22;22054;51.646;7.078;2022-11-04T17:46:10;10.10;99.90
35613;DHT22;22054;51.646;7.078;2022-11-04T17:48:56;10.00;99.90
35613;DHT22;22054;51.646;7.078;2022-11-04T17:51:22;9.90;99.90
35613;DHT22;22054;51.646;7.078;2022-11-04T17:53:48;9.80;99.90
35613;DHT22;22054;51.646;7.078;2022-11-04T17:56:15;9.80;99.90
35613;DHT22;22054;51.646;7.078;2022-11-04T17:58:42;9.70;99.90
35613;DHT22;22054;51.646;7.078;2022-11-04T18:01:09;9.70;99.90
35613;DHT22;22054;51.646;7.078;2022-11-04T18:03:37;9.60;99.90
35613;DHT22;22054;51.646;7.078;2022-11-04T18:06:03;9.60;99.90
35613;DHT22;22054;51.646;7.078;2022-11-04T18:08:29;9.70;99.90
35613;DHT22;22054;51.646;7.078;2022-11-04T18:11:00;9.60;99.90
35613;DHT22;22054;51.646;7.078;2022-11-04T18:13:27;9.60;99.90
35613;DHT22;22054;51.646;7.078;2022-11-04T18:15:53;9.60;99.90
35613;DHT22;22054;51.646;7.078;2022-11-04T18:18:19;9.50;99.90
35613;DHT22;22054;51.646;7.078;2022-11-04T18:20:46;9.60;99.90
35613;DHT22;22054;51.646;7.078;2022-11-04T18:23:12;9.70;99.90
35613;DHT22;22054;51.646;7.078;2022-11-04T18:25:39;9.70;99.90